createdAt,value
2023-03-12T00:01:37.823Z,3.37
2023-03-12T00:04:40.816Z,3.50
2023-03-12T00:07:45.119Z,3.67
2023-03-12T00:10:48.084Z,3.70
2023-03-12T00:13:52.319Z,3.60
2023-03-12T00:16:55.817Z,3.50
2023-03-12T00:19:58.806Z,3.47
2023-03-12T00:23:03.150Z,3.80
2023-03-12T00:26:08.629Z,3.40
2023-03-12T00:29:11.566Z,3.77
2023-03-12T00:32:14.559Z,3.20
2023-03-12T00:35:17.564Z,3.30
2023-03-12T00:38:21.942Z,3.57
2023-03-12T00:41:26.301Z,3.10
2023-03-12T00:44:29.253Z,3.53
2023-03-12T00:47:32.225Z,3.37
2023-03-12T00:50:35.160Z,3.70
2023-03-12T00:53:39.588Z,3.80
2023-03-12T00:56:42.520Z,4.20
2023-03-12T00:59:45.673Z,3.57
2023-03-12T01:02:48.684Z,4.20
2023-03-12T01:05:55.502Z,4.10
2023-03-12T01:08:59.979Z,4.73
2023-03-12T01:12:02.988Z,4.27
2023-03-12T01:15:07.106Z,4.80
2023-03-12T01:18:10.075Z,4.17
2023-03-12T01:21:13.041Z,4.50
2023-03-12T01:24:17.669Z,4.50
2023-03-12T01:27:21.203Z,4.47
2023-03-12T01:30:24.179Z,4.93
2023-03-12T01:33:27.323Z,4.87
2023-03-12T01:36:31.511Z,4.60
2023-03-12T01:39:35.922Z,5.07
2023-03-12T01:42:38.897Z,5.50
2023-03-12T01:46:07.448Z,5.50
2023-03-12T01:49:13.645Z,5.07
2023-03-12T01:52:19.872Z,5.53
2023-03-12T01:55:24.320Z,5.43
2023-03-12T01:58:28.589Z,5.90
2023-03-12T02:01:31.970Z,5.33
2023-03-12T02:04:35.769Z,5.10
2023-03-12T02:07:38.749Z,4.90
2023-03-12T02:10:43.227Z,4.53
2023-03-12T02:13:46.321Z,4.93
2023-03-12T02:16:49.637Z,4.30
2023-03-12T02:20:01.231Z,4.97
2023-03-12T02:23:07.400Z,4.70
2023-03-12T02:26:12.987Z,4.40
2023-03-12T02:29:16.557Z,4.53
2023-03-12T02:32:25.385Z,5.17
2023-03-12T02:35:28.654Z,5.33
2023-03-12T02:38:39.719Z,5.77
2023-03-12T02:41:46.909Z,5.47
2023-03-12T02:44:49.863Z,6.20
2023-03-12T02:47:52.876Z,5.73
2023-03-12T02:50:55.890Z,6.40
2023-03-12T02:53:58.821Z,5.43
2023-03-12T02:57:03.146Z,4.87
2023-03-12T03:00:07.230Z,4.13
2023-03-12T03:03:10.314Z,5.03
2023-03-12T03:06:13.799Z,4.73
2023-03-12T03:09:16.978Z,4.23
2023-03-12T03:12:22.757Z,4.03
2023-03-12T03:15:26.423Z,4.07
2023-03-12T03:18:29.687Z,3.57
2023-03-12T03:21:33.210Z,3.60
2023-03-12T03:24:36.413Z,3.40
2023-03-12T03:27:40.721Z,4.00
2023-03-12T03:30:43.781Z,3.27
2023-03-12T03:33:47.035Z,3.70
2023-03-12T03:36:49.981Z,3.93
2023-03-12T03:39:52.941Z,3.90
2023-03-12T03:42:57.261Z,3.93
2023-03-12T03:46:01.462Z,3.60
2023-03-12T03:49:04.957Z,3.90
2023-03-12T03:52:08.065Z,3.60
2023-03-12T03:55:11.250Z,3.60
2023-03-12T03:58:15.540Z,3.93
2023-03-12T04:01:18.515Z,4.53
2023-03-12T04:04:21.608Z,4.00
2023-03-12T04:07:24.719Z,4.00
2023-03-12T04:10:27.674Z,3.77
2023-03-12T04:13:31.947Z,4.03
2023-03-12T04:16:34.931Z,3.30
2023-03-12T04:19:38.518Z,3.80
2023-03-12T04:22:41.477Z,3.73
2023-03-12T04:25:44.427Z,3.60
2023-03-12T04:28:48.725Z,3.57
2023-03-12T04:31:51.736Z,3.27
2023-03-12T04:34:54.897Z,3.83
2023-03-12T04:37:57.906Z,3.77
2023-03-12T04:41:01.551Z,3.80
2023-03-12T04:44:06.344Z,3.80
2023-03-12T04:47:09.290Z,3.97
2023-03-12T04:50:13.388Z,4.07
2023-03-12T04:53:16.349Z,4.23
2023-03-12T04:56:19.316Z,4.20
2023-03-12T04:59:23.609Z,3.73
2023-03-12T05:02:26.972Z,4.27
2023-03-12T05:05:29.904Z,4.00
2023-03-12T05:08:32.870Z,3.80
2023-03-12T05:11:37.829Z,4.40
2023-03-12T05:14:43.801Z,4.53
2023-03-12T05:17:46.912Z,4.47
2023-03-12T05:20:59.569Z,4.40
2023-03-12T05:24:02.597Z,4.60
2023-03-12T05:27:08.299Z,4.43
2023-03-12T05:30:13.403Z,4.27
2023-03-12T05:33:16.389Z,4.03
2023-03-12T05:36:19.643Z,5.13
2023-03-12T05:39:22.849Z,4.13
2023-03-12T05:42:26.326Z,4.10
2023-03-12T05:45:30.772Z,4.83
2023-03-12T05:48:33.803Z,5.30
2023-03-12T05:51:37.047Z,4.70
2023-03-12T05:54:40.100Z,4.70
2023-03-12T05:57:43.091Z,4.47
2023-03-12T06:00:47.558Z,5.23
2023-03-12T06:03:50.958Z,4.80
2023-03-12T06:06:53.903Z,4.67
2023-03-12T06:09:57.095Z,5.23
2023-03-12T06:13:00.127Z,5.27
2023-03-12T06:16:05.678Z,4.73
2023-03-12T06:19:08.646Z,5.10
2023-03-12T06:22:11.714Z,4.93
2023-03-12T06:25:14.693Z,4.77
2023-03-12T06:28:17.961Z,5.00
2023-03-12T06:31:23.419Z,5.20
2023-03-12T06:34:26.417Z,5.97
2023-03-12T06:37:29.646Z,7.17
2023-03-12T06:40:32.982Z,6.30
2023-03-12T06:43:40.225Z,6.17
2023-03-12T06:46:45.175Z,6.13
2023-03-12T06:49:51.547Z,6.23
2023-03-12T06:52:54.501Z,6.17
2023-03-12T06:55:57.495Z,6.80
2023-03-12T06:59:00.591Z,6.83
2023-03-12T07:02:05.205Z,6.33
2023-03-12T07:05:09.967Z,6.53
2023-03-12T07:08:13.394Z,5.50
2023-03-12T07:11:17.631Z,5.83
2023-03-12T07:14:21.381Z,5.73
2023-03-12T07:17:26.392Z,6.40
2023-03-12T07:20:29.371Z,5.30
2023-03-12T07:23:32.316Z,5.30
2023-03-12T07:26:36.212Z,5.53
2023-03-12T07:29:39.240Z,5.50
2023-03-12T07:32:44.724Z,5.50
2023-03-12T07:35:51.565Z,4.93
2023-03-12T07:38:54.828Z,4.73
2023-03-12T07:41:57.810Z,4.53
2023-03-12T07:45:00.979Z,3.70
2023-03-12T07:48:05.773Z,4.43
2023-03-12T07:51:08.900Z,3.30
2023-03-12T07:54:11.837Z,3.67
2023-03-12T07:57:15.089Z,3.20
2023-03-12T08:00:18.430Z,3.23
2023-03-12T08:03:23.011Z,3.00
2023-03-12T08:06:26.344Z,3.20
2023-03-12T08:09:29.501Z,3.47
2023-03-12T08:12:32.929Z,3.50
2023-03-12T08:15:35.890Z,3.33
2023-03-12T08:18:40.227Z,3.57
2023-03-12T08:21:43.184Z,3.00
2023-03-12T08:24:46.449Z,3.40
2023-03-12T08:27:49.467Z,3.20
2023-03-12T08:30:53.993Z,3.00
2023-03-12T08:33:58.278Z,2.73
2023-03-12T08:37:01.327Z,3.17
2023-03-12T08:40:12.859Z,3.00
2023-03-12T08:43:15.853Z,3.20
2023-03-12T08:46:19.035Z,3.07
2023-03-12T08:49:24.286Z,3.20
2023-03-12T08:52:27.339Z,2.53
2023-03-12T08:55:30.623Z,3.00
2023-03-12T08:58:33.652Z,2.53
2023-03-12T09:01:36.649Z,2.83
2023-03-12T09:04:41.173Z,3.07
2023-03-12T09:07:44.199Z,3.77
2023-03-12T09:10:50.007Z,3.60
2023-03-12T09:14:26.609Z,3.10
2023-03-12T09:17:16.056Z,3.80
2023-03-12T09:20:20.572Z,3.03
2023-03-12T09:23:23.787Z,3.97
2023-03-12T09:26:26.804Z,3.60
2023-03-12T09:29:29.736Z,3.37
2023-03-12T09:32:32.736Z,3.30
2023-03-12T09:35:37.346Z,3.63
2023-03-12T09:38:40.423Z,3.20
2023-03-12T09:41:47.620Z,3.63
2023-03-12T09:44:53.112Z,2.93
2023-03-12T09:47:59.644Z,3.13
2023-03-12T09:51:07.241Z,3.50
2023-03-12T09:54:23.797Z,3.13
2023-03-12T09:57:29.827Z,2.97
2023-03-12T10:00:36.994Z,2.87
2023-03-12T10:03:57.406Z,2.93
2023-03-12T10:07:09.868Z,2.73
2023-03-12T10:10:25.564Z,3.13
2023-03-12T10:13:46.984Z,2.60
2023-03-12T10:16:59.840Z,3.10
2023-03-12T10:20:33.117Z,2.40
2023-03-12T10:23:48.869Z,2.60
2023-03-12T10:26:53.891Z,2.70
2023-03-12T10:29:57.557Z,2.67
2023-03-12T10:33:04.978Z,2.23
2023-03-12T10:36:16.181Z,2.90
2023-03-12T10:39:21.509Z,2.87
2023-03-12T10:42:26.549Z,2.70
2023-03-12T10:45:39.001Z,2.33
2023-03-12T10:48:43.738Z,2.10
2023-03-12T10:51:56.113Z,2.63
2023-03-12T10:55:13.118Z,2.33
2023-03-12T10:58:24.839Z,2.50
2023-03-12T11:01:30.386Z,2.63
2023-03-12T11:04:33.949Z,2.47
2023-03-12T11:07:37.241Z,2.60
2023-03-12T11:10:44.417Z,2.20
2023-03-12T11:13:47.460Z,2.07
2023-03-12T11:16:51.346Z,2.20
2023-03-12T11:19:54.417Z,2.47
2023-03-12T11:22:57.591Z,2.70
2023-03-12T11:26:04.396Z,2.27
2023-03-12T11:29:18.186Z,2.53
2023-03-12T11:32:26.025Z,2.50
2023-03-12T11:35:41.699Z,2.70
2023-03-12T11:38:51.665Z,2.60
2023-03-12T11:42:17.237Z,2.60
2023-03-12T11:45:27.280Z,2.10
2023-03-12T11:48:39.429Z,2.60
2023-03-12T11:51:52.152Z,2.47
2023-03-12T11:55:22.259Z,2.13
2023-03-12T11:58:39.277Z,2.20
2023-03-12T12:01:56.902Z,2.10
2023-03-12T12:05:23.341Z,1.77
2023-03-12T12:08:48.978Z,1.80
2023-03-12T12:12:05.491Z,2.07
2023-03-12T12:15:28.911Z,1.90
2023-03-12T12:18:51.864Z,1.73
2023-03-12T12:22:12.127Z,1.83
2023-03-12T12:25:29.260Z,1.77
2023-03-12T12:29:04.828Z,1.30
2023-03-12T12:32:17.558Z,1.33
2023-03-12T12:35:28.162Z,1.70
2023-03-12T12:38:36.135Z,1.40
2023-03-12T12:41:42.737Z,1.90
2023-03-12T12:44:49.659Z,1.57
2023-03-12T12:47:58.023Z,1.87
2023-03-12T12:51:02.216Z,1.57
2023-03-12T12:54:09.628Z,1.20
2023-03-12T12:57:19.220Z,1.30
2023-03-12T13:00:39.146Z,1.40
2023-03-12T13:03:44.338Z,1.17
2023-03-12T13:07:03.421Z,1.47
2023-03-12T13:10:28.583Z,1.20
2023-03-12T13:13:33.321Z,1.23
2023-03-12T13:16:39.062Z,1.20
2023-03-12T13:19:44.988Z,1.33
2023-03-12T13:23:24.290Z,1.23
2023-03-12T13:26:32.502Z,1.70
2023-03-12T13:29:42.382Z,1.50
2023-03-12T13:33:11.603Z,1.63
2023-03-12T13:36:28.178Z,1.30
2023-03-12T13:39:33.838Z,1.77
2023-03-12T13:42:40.658Z,1.70
2023-03-12T13:46:01.722Z,1.50
2023-03-12T13:49:14.624Z,1.70
2023-03-12T13:52:23.816Z,1.50
2023-03-12T13:55:29.077Z,1.60
2023-03-12T13:58:32.748Z,1.40
2023-03-12T14:01:41.257Z,1.50
2023-03-12T14:04:44.496Z,1.67
2023-03-12T14:08:12.020Z,2.03
2023-03-12T14:11:27.131Z,1.40
2023-03-12T14:15:04.836Z,1.57
2023-03-12T14:18:16.764Z,1.33
2023-03-12T14:21:22.444Z,1.67
2023-03-12T14:24:28.524Z,1.70
2023-03-12T14:27:34.653Z,1.93
2023-03-12T14:30:45.433Z,1.57
2023-03-12T14:33:54.367Z,1.53
2023-03-12T14:37:01.488Z,1.70
2023-03-12T14:40:15.749Z,1.73
2023-03-12T14:43:24.171Z,1.73
2023-03-12T14:46:27.242Z,1.93
2023-03-12T14:49:32.566Z,2.10
2023-03-12T14:52:35.544Z,2.13
2023-03-12T14:55:38.524Z,2.10
2023-03-12T14:58:45.301Z,2.27
2023-03-12T15:01:49.122Z,2.23
2023-03-12T15:04:56.912Z,2.30
2023-03-12T15:08:05.304Z,2.43
2023-03-12T15:11:08.341Z,2.20
2023-03-12T15:14:16.324Z,2.07
2023-03-12T15:17:21.120Z,2.33
2023-03-12T15:20:26.787Z,2.77
2023-03-12T15:23:33.618Z,2.30
2023-03-12T15:26:38.141Z,2.00
2023-03-12T15:29:42.836Z,2.13
2023-03-12T15:33:08.738Z,2.50
2023-03-12T15:36:26.362Z,2.50
2023-03-12T15:39:32.227Z,2.60
2023-03-12T15:42:41.251Z,2.90
2023-03-12T15:45:44.460Z,2.53
2023-03-12T15:48:52.157Z,3.47
2023-03-12T15:52:07.034Z,2.87
2023-03-12T15:55:26.962Z,2.70
2023-03-12T15:58:32.814Z,3.23
2023-03-12T16:01:46.564Z,2.93
2023-03-12T16:04:49.514Z,2.80
2023-03-12T16:07:54.359Z,2.80
2023-03-12T16:10:57.463Z,3.07
2023-03-12T16:14:05.468Z,2.87
2023-03-12T16:17:14.630Z,3.63
2023-03-12T16:20:18.467Z,3.30
2023-03-12T16:23:22.753Z,3.57
2023-03-12T16:26:25.966Z,3.83
2023-03-12T16:29:34.449Z,3.77
2023-03-12T16:32:37.453Z,3.40
2023-03-12T16:35:40.493Z,3.33
2023-03-12T16:38:45.228Z,3.50
2023-03-12T16:41:48.824Z,3.83
2023-03-12T16:44:51.878Z,3.63
2023-03-12T16:48:01.113Z,3.53
2023-03-12T16:51:04.324Z,3.33
2023-03-12T16:54:11.816Z,3.13
2023-03-12T16:57:23.340Z,2.90
2023-03-12T17:00:30.170Z,3.70
2023-03-12T17:03:36.525Z,4.23
2023-03-12T17:06:41.232Z,4.07
2023-03-12T17:09:45.597Z,3.80
2023-03-12T17:12:49.512Z,4.10
2023-03-12T17:15:53.294Z,4.00
2023-03-12T17:18:57.031Z,4.70
2023-03-12T17:22:00.114Z,3.80
2023-03-12T17:25:04.933Z,4.67
2023-03-12T17:28:09.354Z,4.50
2023-03-12T17:31:12.427Z,4.83
2023-03-12T17:34:15.761Z,4.33
2023-03-12T17:37:18.773Z,5.00
2023-03-12T17:40:23.227Z,4.53
2023-03-12T17:43:26.360Z,5.10
2023-03-12T17:46:29.806Z,5.10
2023-03-12T17:49:32.827Z,5.50
2023-03-12T17:52:36.137Z,5.47
2023-03-12T17:55:41.102Z,5.13
2023-03-12T17:58:44.182Z,6.20
2023-03-12T18:01:47.138Z,5.90
2023-03-12T18:04:50.168Z,5.70
2023-03-12T18:07:53.139Z,6.53
2023-03-12T18:10:57.491Z,7.03
2023-03-12T18:14:00.452Z,7.07
2023-03-12T18:17:03.399Z,6.93
2023-03-12T18:20:09.960Z,8.93
2023-03-12T18:23:12.908Z,10.37
2023-03-12T18:26:17.219Z,8.90
2023-03-12T18:29:20.194Z,10.03
2023-03-12T18:32:23.183Z,10.50
2023-03-12T18:35:28.858Z,10.87
2023-03-12T18:38:32.783Z,12.40
2023-03-12T18:41:39.421Z,12.77
2023-03-12T18:44:43.311Z,14.37
2023-03-12T18:47:50.134Z,12.10
2023-03-12T18:50:53.382Z,13.87
2023-03-12T18:53:56.333Z,13.90
2023-03-12T18:57:00.885Z,12.30
2023-03-12T19:00:06.198Z,15.03
2023-03-12T19:03:10.018Z,13.80
2023-03-12T19:06:14.626Z,14.03
2023-03-12T19:09:17.610Z,14.20
2023-03-12T19:12:21.954Z,14.60
2023-03-12T19:15:25.131Z,14.60
2023-03-12T19:18:28.697Z,15.70
2023-03-12T19:21:31.701Z,15.63
2023-03-12T19:24:34.706Z,16.37
2023-03-12T19:27:38.995Z,17.87
2023-03-12T19:30:41.944Z,17.03
2023-03-12T19:33:45.107Z,17.47
2023-03-12T19:36:48.079Z,16.70
2023-03-12T19:39:51.055Z,17.63
2023-03-12T19:42:55.369Z,17.83
2023-03-12T19:45:58.327Z,17.67
2023-03-12T19:49:01.330Z,18.40
2023-03-12T19:52:04.906Z,18.73
2023-03-12T19:55:09.514Z,18.47
2023-03-12T19:58:13.831Z,18.63
2023-03-12T20:01:16.808Z,19.23
2023-03-12T20:04:19.836Z,17.20
2023-03-12T20:07:22.788Z,18.63
2023-03-12T20:10:25.928Z,19.13
2023-03-12T20:13:30.270Z,18.80
2023-03-12T20:16:33.310Z,19.43
2023-03-12T20:19:36.369Z,18.43
2023-03-12T20:22:39.339Z,18.63
2023-03-12T20:25:42.963Z,18.33
2023-03-12T20:28:47.245Z,19.93
2023-03-12T20:31:50.263Z,19.03
2023-03-12T20:34:53.222Z,18.77
2023-03-12T20:37:56.180Z,19.90
2023-03-12T20:40:59.100Z,19.13
2023-03-12T20:44:03.418Z,17.60
2023-03-12T20:47:06.420Z,16.90
2023-03-12T20:50:10.946Z,18.53
2023-03-12T20:53:13.944Z,18.17
2023-03-12T20:56:17.017Z,16.97
2023-03-12T20:59:21.379Z,15.07
2023-03-12T21:02:25.135Z,15.23
2023-03-12T21:05:28.610Z,18.67
2023-03-12T21:08:32.845Z,15.53
2023-03-12T21:11:36.174Z,14.83
2023-03-12T21:14:40.904Z,13.70
2023-03-12T21:17:43.835Z,14.87
2023-03-12T21:20:46.826Z,13.53
2023-03-12T21:23:49.918Z,11.90
2023-03-12T21:26:52.864Z,11.50
2023-03-12T21:29:57.138Z,11.33
2023-03-12T21:33:01.265Z,12.10
2023-03-12T21:36:05.806Z,11.60
2023-03-12T21:39:08.753Z,11.17
2023-03-12T21:42:11.803Z,11.23
2023-03-12T21:45:16.138Z,12.20
2023-03-12T21:48:19.057Z,11.33
2023-03-12T21:51:22.657Z,10.17
2023-03-12T21:54:26.872Z,11.00
2023-03-12T21:57:30.422Z,11.03
2023-03-12T22:00:34.696Z,11.20
2023-03-12T22:03:39.051Z,11.00
2023-03-12T22:06:42.400Z,9.70
2023-03-12T22:09:45.345Z,10.00
2023-03-12T22:12:48.246Z,9.73
2023-03-12T22:15:56.466Z,9.63
2023-03-12T22:18:59.540Z,8.80
2023-03-12T22:22:02.648Z,9.17
2023-03-12T22:25:06.334Z,8.93
2023-03-12T22:28:09.263Z,8.13
2023-03-12T22:31:13.578Z,9.40
2023-03-12T22:34:16.609Z,8.83
2023-03-12T22:37:19.551Z,8.90
2023-03-12T22:40:22.601Z,8.63
2023-03-12T22:43:26.856Z,8.73
2023-03-12T22:46:31.282Z,8.33
2023-03-12T22:49:34.383Z,8.63
2023-03-12T22:52:37.303Z,8.17
2023-03-12T22:55:40.277Z,7.30
2023-03-12T22:58:43.250Z,8.37
2023-03-12T23:01:47.564Z,8.10
2023-03-12T23:04:50.671Z,7.80
2023-03-12T23:07:53.688Z,8.27
2023-03-12T23:10:58.710Z,7.47
2023-03-12T23:14:01.736Z,6.60
2023-03-12T23:17:06.204Z,7.10
2023-03-12T23:20:10.464Z,6.03
2023-03-12T23:23:15.501Z,6.43
2023-03-12T23:26:20.907Z,5.17
2023-03-12T23:29:24.052Z,5.87
2023-03-12T23:32:28.397Z,5.63
2023-03-12T23:35:31.768Z,6.37
2023-03-12T23:38:37.477Z,4.83
2023-03-12T23:41:41.135Z,5.03
2023-03-12T23:44:44.117Z,5.17
2023-03-12T23:47:48.384Z,5.07
2023-03-12T23:50:51.341Z,6.33
2023-03-12T23:53:57.582Z,5.00
2023-03-12T23:57:00.596Z,4.87
